createdAt,value
2023-02-17T00:02:05.909Z,91.42
2023-02-17T00:08:07.818Z,91.72
2023-02-17T00:14:13.521Z,93.02
2023-02-17T00:20:15.404Z,92.80
2023-02-17T00:26:19.074Z,93.05
2023-02-17T00:32:21.005Z,93.31
2023-02-17T00:38:22.918Z,94.53
2023-02-17T00:44:25.566Z,94.96
2023-02-17T00:50:27.472Z,95.68
2023-02-17T00:56:29.356Z,95.87
2023-02-17T01:02:31.240Z,96.47
2023-02-17T01:08:33.204Z,97.73
2023-02-17T01:14:35.119Z,97.78
2023-02-17T01:20:38.871Z,99.48
2023-02-17T01:26:41.056Z,99.78
2023-02-17T01:32:42.978Z,100.00
2023-02-17T01:38:46.500Z,100.00
2023-02-17T01:45:19.260Z,100.00
2023-02-17T01:51:26.559Z,100.00
2023-02-17T01:57:32.880Z,100.00
2023-02-17T02:03:37.448Z,100.00
2023-02-17T02:09:47.246Z,100.00
2023-02-17T02:16:19.017Z,100.00
2023-02-17T02:22:51.616Z,100.00
2023-02-17T02:29:06.060Z,100.00
2023-02-17T02:35:54.595Z,100.00
2023-02-17T02:42:02.992Z,100.00
2023-02-17T02:48:04.906Z,100.00
2023-02-17T02:54:47.967Z,100.00
2023-02-17T03:01:14.142Z,100.00
2023-02-17T03:07:31.932Z,100.00
2023-02-17T03:13:39.382Z,100.00
2023-02-17T03:19:42.129Z,100.00
2023-02-17T03:25:45.201Z,100.00
2023-02-17T03:31:47.416Z,100.00
2023-02-17T03:37:49.357Z,100.00
2023-02-17T03:43:51.356Z,100.00
2023-02-17T03:49:53.294Z,100.00
2023-02-17T03:55:55.172Z,100.00
2023-02-17T04:01:57.116Z,100.00
2023-02-17T04:07:59.050Z,100.00
2023-02-17T04:14:01.058Z,100.00
2023-02-17T04:20:03.667Z,100.00
2023-02-17T04:26:07.722Z,100.00
2023-02-17T04:32:09.827Z,100.00
2023-02-17T04:38:12.233Z,100.00
2023-02-17T04:44:14.127Z,100.00
2023-02-17T04:50:16.416Z,100.00
2023-02-17T04:56:18.480Z,100.00
2023-02-17T05:02:20.417Z,100.00
2023-02-17T05:08:22.414Z,100.00
2023-02-17T05:14:24.447Z,100.00
2023-02-17T05:20:26.486Z,100.00
2023-02-17T05:26:28.572Z,100.00
2023-02-17T05:32:30.546Z,100.00
2023-02-17T05:38:33.140Z,100.00
2023-02-17T05:44:35.088Z,100.00
2023-02-17T05:50:37.002Z,100.00
2023-02-17T05:56:39.652Z,100.00
2023-02-17T06:02:41.672Z,100.00
2023-02-17T06:08:43.616Z,100.00
2023-02-17T06:14:45.507Z,100.00
2023-02-17T06:20:47.451Z,100.00
2023-02-17T06:26:49.322Z,100.00
2023-02-17T06:32:51.443Z,100.00
2023-02-17T06:38:53.363Z,100.00
2023-02-17T06:44:55.239Z,100.00
2023-02-17T06:50:57.112Z,100.00
2023-02-17T06:56:59.018Z,100.00
2023-02-17T07:03:01.050Z,98.96
2023-02-17T07:09:03.472Z,98.70
2023-02-17T07:15:05.897Z,97.05
2023-02-17T07:21:09.874Z,97.05
2023-02-17T07:27:12.238Z,96.25
2023-02-17T07:33:14.139Z,96.47
2023-02-17T07:39:16.586Z,95.53
2023-02-17T07:45:18.774Z,94.26
2023-02-17T07:51:22.822Z,95.00
2023-02-17T07:57:24.796Z,95.35
2023-02-17T08:03:26.704Z,93.57
2023-02-17T08:09:47.313Z,94.77
2023-02-17T08:15:49.214Z,94.41
2023-02-17T08:21:51.215Z,94.22
2023-02-17T08:27:54.451Z,93.78
2023-02-17T08:33:57.224Z,94.09
2023-02-17T08:39:59.337Z,93.87
2023-02-17T08:46:01.295Z,93.72
2023-02-17T08:52:03.943Z,93.34
2023-02-17T08:58:05.925Z,93.43
2023-02-17T09:04:10.319Z,93.52
2023-02-17T09:10:13.393Z,93.62
2023-02-17T09:16:15.479Z,92.86
2023-02-17T09:22:30.707Z,93.69
2023-02-17T09:28:34.193Z,93.53
2023-02-17T09:34:39.493Z,93.14
2023-02-17T09:41:14.379Z,93.30
2023-02-17T09:47:23.271Z,93.34
2023-02-17T09:53:57.963Z,94.50
2023-02-17T10:00:34.023Z,93.38
2023-02-17T10:06:49.866Z,93.19
2023-02-17T10:13:02.506Z,92.96
2023-02-17T10:19:26.757Z,92.38
2023-02-17T10:25:56.343Z,92.56
2023-02-17T10:32:23.512Z,91.78
2023-02-17T10:38:41.299Z,92.31
2023-02-17T10:44:44.107Z,91.89
2023-02-17T10:50:47.153Z,92.60
2023-02-17T10:56:54.236Z,91.97
2023-02-17T11:02:56.259Z,91.76
2023-02-17T11:09:07.574Z,91.66
2023-02-17T11:15:22.922Z,91.11
2023-02-17T11:21:24.991Z,91.15
2023-02-17T11:27:27.564Z,91.10
2023-02-17T11:33:40.591Z,90.10
2023-02-17T11:39:54.590Z,89.79
2023-02-17T11:46:12.192Z,89.79
2023-02-17T11:52:45.088Z,88.74
2023-02-17T11:58:46.848Z,87.14
2023-02-17T12:05:28.918Z,85.56
2023-02-17T12:11:41.002Z,83.37
2023-02-17T12:18:06.943Z,81.52
2023-02-17T12:24:37.799Z,78.88
2023-02-17T12:30:57.980Z,77.33
2023-02-17T12:37:01.107Z,77.54
2023-02-17T12:43:17.696Z,78.49
2023-02-17T12:49:40.086Z,78.58
2023-02-17T12:55:54.355Z,79.56
2023-02-17T13:02:13.227Z,80.32
2023-02-17T13:08:30.504Z,81.33
2023-02-17T13:14:49.262Z,80.13
2023-02-17T13:21:27.652Z,79.58
2023-02-17T13:27:31.072Z,78.61
2023-02-17T13:33:59.291Z,77.61
2023-02-17T13:40:24.184Z,77.90
2023-02-17T13:46:27.589Z,76.69
2023-02-17T13:52:31.985Z,76.88
2023-02-17T13:58:41.112Z,77.02
2023-02-17T14:04:43.834Z,76.56
2023-02-17T14:10:46.282Z,75.79
2023-02-17T14:17:06.325Z,75.61
2023-02-17T14:23:13.462Z,77.54
2023-02-17T14:29:16.453Z,79.83
2023-02-17T14:35:18.225Z,86.74
2023-02-17T14:41:20.154Z,90.76
2023-02-17T14:47:22.028Z,92.63
2023-02-17T14:53:33.274Z,92.87
2023-02-17T14:59:35.199Z,92.49
2023-02-17T15:05:37.112Z,91.67
2023-02-17T15:11:39.922Z,90.80
2023-02-17T15:17:41.834Z,91.51
2023-02-17T15:23:43.739Z,90.31
2023-02-17T15:29:45.688Z,90.31
2023-02-17T15:35:51.347Z,91.60
2023-02-17T15:41:56.244Z,95.54
2023-02-17T15:48:21.482Z,99.40
2023-02-17T15:54:23.479Z,100.00
2023-02-17T16:00:29.692Z,100.00
2023-02-17T16:06:31.725Z,100.00
2023-02-17T16:12:33.722Z,100.00
2023-02-17T16:18:35.610Z,100.00
2023-02-17T16:24:37.527Z,100.00
2023-02-17T16:30:41.693Z,100.00
2023-02-17T16:36:44.143Z,100.00
2023-02-17T16:42:46.028Z,99.48
2023-02-17T16:48:48.283Z,96.36
2023-02-17T16:54:50.364Z,94.91
2023-02-17T17:00:55.043Z,94.68
2023-02-17T17:06:56.942Z,93.71
2023-02-17T17:12:59.796Z,93.46
2023-02-17T17:19:02.668Z,93.57
2023-02-17T17:25:04.715Z,92.44
2023-02-17T17:31:06.735Z,92.05
2023-02-17T17:37:10.872Z,92.33
2023-02-17T17:43:12.752Z,92.83
2023-02-17T17:49:17.879Z,93.42
2023-02-17T17:55:19.811Z,92.98
2023-02-17T18:01:22.591Z,92.96
2023-02-17T18:07:26.572Z,91.58
2023-02-17T18:13:28.746Z,91.10
2023-02-17T18:19:32.416Z,89.22
2023-02-17T18:25:34.346Z,88.53
2023-02-17T18:31:36.700Z,86.87
2023-02-17T18:37:41.024Z,86.76
2023-02-17T18:43:42.997Z,86.17
2023-02-17T18:49:44.899Z,86.36
2023-02-17T18:55:46.796Z,85.51
2023-02-17T19:01:48.795Z,85.47
2023-02-17T19:07:50.682Z,84.45
2023-02-17T19:13:53.450Z,83.24
2023-02-17T19:19:55.341Z,83.54
2023-02-17T19:25:57.470Z,83.23
2023-02-17T19:32:01.240Z,83.85
2023-02-17T19:38:03.213Z,84.45
2023-02-17T19:44:05.306Z,87.85
2023-02-17T19:50:08.043Z,93.88
2023-02-17T19:56:25.787Z,94.73
2023-02-17T20:02:27.813Z,95.55
2023-02-17T20:08:29.712Z,96.50
2023-02-17T20:14:31.650Z,98.66
2023-02-17T20:20:33.563Z,100.00
2023-02-17T20:26:41.682Z,100.00
2023-02-17T20:32:43.584Z,100.00
2023-02-17T20:38:45.919Z,98.13
2023-02-17T20:44:50.252Z,90.32
2023-02-17T20:50:52.291Z,86.61
2023-02-17T20:56:55.700Z,82.52
2023-02-17T21:02:57.703Z,79.57
2023-02-17T21:09:04.462Z,78.06
2023-02-17T21:15:07.064Z,77.56
2023-02-17T21:21:09.112Z,76.78
2023-02-17T21:27:10.983Z,77.42
2023-02-17T21:33:13.013Z,76.82
2023-02-17T21:39:14.966Z,76.39
2023-02-17T21:45:16.959Z,76.92
2023-02-17T21:51:19.185Z,77.48
2023-02-17T21:57:21.153Z,76.71
2023-02-17T22:03:23.454Z,77.42
2023-02-17T22:09:25.335Z,78.12
2023-02-17T22:15:27.226Z,78.50
2023-02-17T22:21:29.487Z,79.92
2023-02-17T22:27:32.279Z,80.26
2023-02-17T22:33:34.876Z,79.90
2023-02-17T22:39:36.771Z,80.88
2023-02-17T22:45:40.252Z,81.42
2023-02-17T22:51:42.173Z,80.32
2023-02-17T22:57:44.046Z,80.12
2023-02-17T23:03:47.374Z,78.87
2023-02-17T23:09:49.282Z,78.56
2023-02-17T23:15:51.482Z,79.06
2023-02-17T23:21:57.653Z,78.10
2023-02-17T23:27:59.910Z,78.38
2023-02-17T23:34:01.814Z,79.57
2023-02-17T23:40:05.430Z,79.27
2023-02-17T23:46:07.900Z,78.93
2023-02-17T23:52:11.046Z,78.02
2023-02-17T23:58:12.946Z,79.75
